sensor_id;sensor_type;location;lat;lon;timestamp;pressure;altitude;pressure_sealevel;temperature;humidity
20009;BME280;10165;42.662;23.260;2023-02-08T00:01:48;95613.28;;;-2.14;55.67
20009;BME280;10165;42.662;23.260;2023-02-08T00:04:14;95616.28;;;-2.75;55.94
20009;BME280;10165;42.662;23.260;2023-02-08T00:06:41;95613.94;;;-2.07;54.97
20009;BME280;10165;42.662;23.260;2023-02-08T00:09:08;95618.50;;;-2.02;54.88
20009;BME280;10165;42.662;23.260;2023-02-08T00:11:34;95623.56;;;-2.77;56.14
20009;BME280;10165;42.662;23.260;2023-02-08T00:14:01;95624.06;;;-2.10;55.06
20009;BME280;10165;42.662;23.260;2023-02-08T00:16:28;95629.88;;;-2.31;55.33
20009;BME280;10165;42.662;23.260;2023-02-08T00:18:55;95623.97;;;-2.27;55.58
20009;BME280;10165;42.662;23.260;2023-02-08T00:21:21;95620.44;;;-2.32;55.35
20009;BME280;10165;42.662;23.260;2023-02-08T00:23:48;95628.88;;;-2.07;55.55
20009;BME280;10165;42.662;23.260;2023-02-08T00:26:15;95626.31;;;-1.56;53.32
20009;BME280;10165;42.662;23.260;2023-02-08T00:28:42;95636.94;;;-2.09;54.45
20009;BME280;10165;42.662;23.260;2023-02-08T00:31:08;95634.19;;;-1.67;54.37
20009;BME280;10165;42.662;23.260;2023-02-08T00:33:35;95630.56;;;-2.13;53.57
20009;BME280;10165;42.662;23.260;2023-02-08T00:36:04;95633.72;;;-1.76;54.49
20009;BME280;10165;42.662;23.260;2023-02-08T00:38:31;95646.16;;;-1.71;54.40
20009;BME280;10165;42.662;23.260;2023-02-08T00:40:58;95645.25;;;-1.77;54.25
20009;BME280;10165;42.662;23.260;2023-02-08T00:43:25;95655.16;;;-1.90;54.10
20009;BME280;10165;42.662;23.260;2023-02-08T00:45:58;95657.97;;;-2.38;54.58
20009;BME280;10165;42.662;23.260;2023-02-08T00:48:26;95653.91;;;-2.23;55.05
20009;BME280;10165;42.662;23.260;2023-02-08T00:53:23;95660.63;;;-2.27;54.74
20009;BME280;10165;42.662;23.260;2023-02-08T00:55:51;95652.06;;;-2.46;55.59
20009;BME280;10165;42.662;23.260;2023-02-08T00:58:18;95660.03;;;-1.94;54.20
20009;BME280;10165;42.662;23.260;2023-02-08T01:00:44;95661.31;;;-1.85;53.30
20009;BME280;10165;42.662;23.260;2023-02-08T01:03:11;95657.09;;;-1.98;54.15
20009;BME280;10165;42.662;23.260;2023-02-08T01:05:38;95655.94;;;-1.67;54.10
20009;BME280;10165;42.662;23.260;2023-02-08T01:08:05;95670.72;;;-1.84;53.74
20009;BME280;10165;42.662;23.260;2023-02-08T01:10:32;95665.47;;;-1.61;53.74
20009;BME280;10165;42.662;23.260;2023-02-08T01:12:58;95664.59;;;-2.01;54.14
20009;BME280;10165;42.662;23.260;2023-02-08T01:15:25;95660.38;;;-1.90;54.48
20009;BME280;10165;42.662;23.260;2023-02-08T01:17:55;95659.25;;;-1.71;54.03
20009;BME280;10165;42.662;23.260;2023-02-08T01:20:23;95665.47;;;-1.49;54.08
20009;BME280;10165;42.662;23.260;2023-02-08T01:22:50;95661.72;;;-1.65;53.88
20009;BME280;10165;42.662;23.260;2023-02-08T01:25:16;95660.81;;;-1.59;54.00
20009;BME280;10165;42.662;23.260;2023-02-08T01:27:43;95659.25;;;-2.18;54.99
20009;BME280;10165;42.662;23.260;2023-02-08T01:30:10;95654.81;;;-1.94;53.94
20009;BME280;10165;42.662;23.260;2023-02-08T01:32:37;95655.59;;;-2.17;55.41
20009;BME280;10165;42.662;23.260;2023-02-08T01:35:04;95660.03;;;-2.17;55.10
20009;BME280;10165;42.662;23.260;2023-02-08T01:37:31;95661.19;;;-2.13;55.06
20009;BME280;10165;42.662;23.260;2023-02-08T01:39:57;95652.88;;;-2.10;54.86
20009;BME280;10165;42.662;23.260;2023-02-08T01:42:24;95652.53;;;-2.02;54.80
20009;BME280;10165;42.662;23.260;2023-02-08T01:45:20;95653.09;;;-1.65;53.72
20009;BME280;10165;42.662;23.260;2023-02-08T01:47:55;95653.19;;;-2.18;54.51
20009;BME280;10165;42.662;23.260;2023-02-08T01:50:27;95653.13;;;-1.77;54.24
20009;BME280;10165;42.662;23.260;2023-02-08T01:52:56;95652.38;;;-1.61;54.50
20009;BME280;10165;42.662;23.260;2023-02-08T01:55:27;95659.00;;;-1.58;54.16
20009;BME280;10165;42.662;23.260;2023-02-08T01:57:57;95662.19;;;-1.68;53.56
20009;BME280;10165;42.662;23.260;2023-02-08T02:00:27;95663.66;;;-2.18;54.34
20009;BME280;10165;42.662;23.260;2023-02-08T02:02:55;95668.03;;;-1.89;54.53
20009;BME280;10165;42.662;23.260;2023-02-08T02:05:31;95667.22;;;-1.78;53.92
20009;BME280;10165;42.662;23.260;2023-02-08T02:07:59;95673.59;;;-2.20;55.12
20009;BME280;10165;42.662;23.260;2023-02-08T02:10:30;95667.19;;;-2.36;55.56
20009;BME280;10165;42.662;23.260;2023-02-08T02:13:06;95675.75;;;-1.94;55.36
20009;BME280;10165;42.662;23.260;2023-02-08T02:15:34;95675.69;;;-2.52;55.88
20009;BME280;10165;42.662;23.260;2023-02-08T02:18:01;95678.94;;;-2.98;57.15
20009;BME280;10165;42.662;23.260;2023-02-08T02:20:53;95680.63;;;-2.32;56.13
20009;BME280;10165;42.662;23.260;2023-02-08T02:24:02;95687.34;;;-2.13;55.71
20009;BME280;10165;42.662;23.260;2023-02-08T02:36:05;95693.03;;;-2.16;56.30
20009;BME280;10165;42.662;23.260;2023-02-08T02:47:53;95702.50;;;-2.15;58.50
20009;BME280;10165;42.662;23.260;2023-02-08T02:50:36;95707.38;;;-2.30;58.86
20009;BME280;10165;42.662;23.260;2023-02-08T02:53:16;95701.91;;;-2.17;58.87
20009;BME280;10165;42.662;23.260;2023-02-08T02:55:58;95706.00;;;-2.21;59.33
20009;BME280;10165;42.662;23.260;2023-02-08T02:58:26;95711.22;;;-2.21;60.07
20009;BME280;10165;42.662;23.260;2023-02-08T03:00:56;95702.53;;;-1.92;59.06
20009;BME280;10165;42.662;23.260;2023-02-08T03:03:26;95704.78;;;-2.19;59.42
20009;BME280;10165;42.662;23.260;2023-02-08T03:05:57;95708.41;;;-2.08;59.67
20009;BME280;10165;42.662;23.260;2023-02-08T03:11:22;95708.44;;;-1.73;58.96
20009;BME280;10165;42.662;23.260;2023-02-08T03:17:19;95710.00;;;-1.72;58.92
20009;BME280;10165;42.662;23.260;2023-02-08T03:22:47;95717.41;;;-2.04;59.56
20009;BME280;10165;42.662;23.260;2023-02-08T03:25:26;95711.94;;;-1.91;59.34
20009;BME280;10165;42.662;23.260;2023-02-08T03:28:04;95711.84;;;-1.96;59.23
20009;BME280;10165;42.662;23.260;2023-02-08T03:30:52;95703.59;;;-2.34;60.07
20009;BME280;10165;42.662;23.260;2023-02-08T03:33:30;95711.47;;;-2.64;61.24
20009;BME280;10165;42.662;23.260;2023-02-08T03:36:13;95688.38;;;-2.67;61.32
20009;BME280;10165;42.662;23.260;2023-02-08T03:38:49;95690.97;;;-2.26;60.74
20009;BME280;10165;42.662;23.260;2023-02-08T03:41:22;95700.28;;;-2.71;61.26
20009;BME280;10165;42.662;23.260;2023-02-08T03:43:58;95711.47;;;-2.64;61.01
20009;BME280;10165;42.662;23.260;2023-02-08T03:46:31;95700.66;;;-2.26;59.99
20009;BME280;10165;42.662;23.260;2023-02-08T03:49:06;95702.78;;;-2.47;60.41
20009;BME280;10165;42.662;23.260;2023-02-08T03:51:35;95702.44;;;-2.50;60.52
20009;BME280;10165;42.662;23.260;2023-02-08T03:54:08;95694.28;;;-2.30;59.83
20009;BME280;10165;42.662;23.260;2023-02-08T03:59:08;95708.06;;;-2.12;59.56
20009;BME280;10165;42.662;23.260;2023-02-08T04:01:43;95709.13;;;-1.78;58.66
20009;BME280;10165;42.662;23.260;2023-02-08T04:04:13;95708.78;;;-1.81;58.10
20009;BME280;10165;42.662;23.260;2023-02-08T04:06:40;95701.81;;;-1.76;58.34
20009;BME280;10165;42.662;23.260;2023-02-08T04:09:07;95715.59;;;-2.15;58.96
20009;BME280;10165;42.662;23.260;2023-02-08T04:11:34;95711.38;;;-2.05;58.74
20009;BME280;10165;42.662;23.260;2023-02-08T04:14:00;95714.00;;;-1.93;58.36
20009;BME280;10165;42.662;23.260;2023-02-08T04:16:27;95718.63;;;-2.18;58.93
20009;BME280;10165;42.662;23.260;2023-02-08T04:18:54;95724.25;;;-1.92;58.90
20009;BME280;10165;42.662;23.260;2023-02-08T04:21:20;95725.97;;;-1.97;58.95
20009;BME280;10165;42.662;23.260;2023-02-08T04:23:47;95726.66;;;-1.43;57.93
20009;BME280;10165;42.662;23.260;2023-02-08T04:26:14;95718.78;;;-1.43;58.22
20009;BME280;10165;42.662;23.260;2023-02-08T04:28:40;95727.13;;;-1.58;57.86
20009;BME280;10165;42.662;23.260;2023-02-08T04:31:07;95724.34;;;-1.98;58.85
20009;BME280;10165;42.662;23.260;2023-02-08T04:33:34;95741.56;;;-1.79;59.22
20009;BME280;10165;42.662;23.260;2023-02-08T04:36:00;95734.72;;;-1.80;59.00
20009;BME280;10165;42.662;23.260;2023-02-08T04:38:27;95741.34;;;-1.66;58.87
20009;BME280;10165;42.662;23.260;2023-02-08T04:40:54;95736.47;;;-1.51;58.44
20009;BME280;10165;42.662;23.260;2023-02-08T04:43:20;95735.66;;;-0.88;57.12
20009;BME280;10165;42.662;23.260;2023-02-08T04:45:49;95736.19;;;-1.37;57.15
20009;BME280;10165;42.662;23.260;2023-02-08T04:48:17;95736.78;;;-1.94;58.24
20009;BME280;10165;42.662;23.260;2023-02-08T04:50:43;95740.53;;;-2.43;60.24
20009;BME280;10165;42.662;23.260;2023-02-08T04:53:10;95740.97;;;-2.04;60.07
20009;BME280;10165;42.662;23.260;2023-02-08T04:55:37;95747.09;;;-2.10;59.51
20009;BME280;10165;42.662;23.260;2023-02-08T04:58:04;95745.56;;;-1.76;59.03
20009;BME280;10165;42.662;23.260;2023-02-08T05:00:30;95750.56;;;-1.63;58.60
20009;BME280;10165;42.662;23.260;2023-02-08T05:02:57;95749.06;;;-1.82;57.88
20009;BME280;10165;42.662;23.260;2023-02-08T05:05:25;95756.91;;;-1.94;58.27
20009;BME280;10165;42.662;23.260;2023-02-08T05:07:53;95771.97;;;-1.89;58.29
20009;BME280;10165;42.662;23.260;2023-02-08T05:10:19;95773.03;;;-2.50;59.84
20009;BME280;10165;42.662;23.260;2023-02-08T05:12:46;95784.59;;;-2.28;59.71
20009;BME280;10165;42.662;23.260;2023-02-08T05:15:13;95781.28;;;-1.94;59.61
20009;BME280;10165;42.662;23.260;2023-02-08T05:17:40;95786.44;;;-1.75;58.60
20009;BME280;10165;42.662;23.260;2023-02-08T05:20:08;95784.94;;;-1.83;58.79
20009;BME280;10165;42.662;23.260;2023-02-08T05:22:35;95788.16;;;-1.81;59.03
20009;BME280;10165;42.662;23.260;2023-02-08T05:25:02;95791.31;;;-1.90;58.99
20009;BME280;10165;42.662;23.260;2023-02-08T05:27:29;95799.06;;;-1.96;59.33
20009;BME280;10165;42.662;23.260;2023-02-08T05:29:56;95795.97;;;-1.92;58.80
20009;BME280;10165;42.662;23.260;2023-02-08T05:32:24;95796.72;;;-2.15;58.92
20009;BME280;10165;42.662;23.260;2023-02-08T05:34:51;95794.84;;;-1.85;58.92
20009;BME280;10165;42.662;23.260;2023-02-08T05:37:17;95805.50;;;-1.98;59.29
20009;BME280;10165;42.662;23.260;2023-02-08T05:39:44;95795.88;;;-0.93;67.32
20009;BME280;10165;42.662;23.260;2023-02-08T05:42:11;95802.69;;;-0.92;59.42
20009;BME280;10165;42.662;23.260;2023-02-08T05:44:38;95809.22;;;-1.53;58.68
20009;BME280;10165;42.662;23.260;2023-02-08T05:47:05;95807.06;;;-1.56;59.01
20009;BME280;10165;42.662;23.260;2023-02-08T05:49:31;95807.94;;;-1.85;59.07
20009;BME280;10165;42.662;23.260;2023-02-08T05:51:58;95819.78;;;-1.82;59.56
20009;BME280;10165;42.662;23.260;2023-02-08T05:54:25;95817.63;;;-1.85;59.39
20009;BME280;10165;42.662;23.260;2023-02-08T05:56:51;95821.28;;;-1.75;59.01
20009;BME280;10165;42.662;23.260;2023-02-08T05:59:18;95814.88;;;-1.79;58.71
20009;BME280;10165;42.662;23.260;2023-02-08T06:01:45;95821.63;;;-1.71;59.42
20009;BME280;10165;42.662;23.260;2023-02-08T06:04:11;95820.97;;;-2.08;59.99
20009;BME280;10165;42.662;23.260;2023-02-08T06:06:38;95818.47;;;-2.03;60.66
20009;BME280;10165;42.662;23.260;2023-02-08T06:09:05;95820.59;;;-1.82;60.14
20009;BME280;10165;42.662;23.260;2023-02-08T06:11:31;95817.00;;;-1.58;59.06
20009;BME280;10165;42.662;23.260;2023-02-08T06:13:59;95813.31;;;-1.68;59.03
20009;BME280;10165;42.662;23.260;2023-02-08T06:16:25;95817.88;;;-1.64;59.11
20009;BME280;10165;42.662;23.260;2023-02-08T06:18:52;95817.00;;;-1.58;58.27
20009;BME280;10165;42.662;23.260;2023-02-08T06:21:19;95819.44;;;-1.86;59.07
20009;BME280;10165;42.662;23.260;2023-02-08T06:23:48;95818.97;;;-1.83;59.28
20009;BME280;10165;42.662;23.260;2023-02-08T06:26:15;95823.34;;;-2.07;59.57
20009;BME280;10165;42.662;23.260;2023-02-08T06:28:42;95828.19;;;-1.92;59.75
20009;BME280;10165;42.662;23.260;2023-02-08T06:31:08;95833.81;;;-1.77;58.83
20009;BME280;10165;42.662;23.260;2023-02-08T06:33:35;95832.63;;;-1.92;58.63
20009;BME280;10165;42.662;23.260;2023-02-08T06:36:02;95817.47;;;-1.90;58.42
20009;BME280;10165;42.662;23.260;2023-02-08T06:38:29;95826.91;;;-1.48;57.71
20009;BME280;10165;42.662;23.260;2023-02-08T06:40:55;95829.38;;;-1.53;56.87
20009;BME280;10165;42.662;23.260;2023-02-08T06:43:22;95833.34;;;-1.74;55.74
20009;BME280;10165;42.662;23.260;2023-02-08T06:45:48;95824.69;;;-1.86;56.13
20009;BME280;10165;42.662;23.260;2023-02-08T06:48:15;95830.59;;;-1.79;55.34
20009;BME280;10165;42.662;23.260;2023-02-08T06:50:42;95841.38;;;-1.57;55.38
20009;BME280;10165;42.662;23.260;2023-02-08T06:53:09;95842.16;;;-1.33;54.87
20009;BME280;10165;42.662;23.260;2023-02-08T06:55:36;95841.59;;;-1.47;54.75
20009;BME280;10165;42.662;23.260;2023-02-08T06:58:03;95849.69;;;-1.37;54.46
20009;BME280;10165;42.662;23.260;2023-02-08T07:00:29;95835.00;;;-1.26;53.89
20009;BME280;10165;42.662;23.260;2023-02-08T07:02:57;95839.53;;;-1.57;54.78
20009;BME280;10165;42.662;23.260;2023-02-08T07:05:24;95849.47;;;-1.47;54.51
20009;BME280;10165;42.662;23.260;2023-02-08T07:07:50;95852.69;;;-2.16;55.86
20009;BME280;10165;42.662;23.260;2023-02-08T07:10:18;95851.94;;;-1.52;54.99
20009;BME280;10165;42.662;23.260;2023-02-08T07:12:45;95849.19;;;-1.80;54.79
20009;BME280;10165;42.662;23.260;2023-02-08T07:15:12;95850.84;;;-1.33;54.38
20009;BME280;10165;42.662;23.260;2023-02-08T07:17:39;95853.81;;;-1.82;54.89
20009;BME280;10165;42.662;23.260;2023-02-08T07:20:06;95858.94;;;-2.17;55.31
20009;BME280;10165;42.662;23.260;2023-02-08T07:22:33;95869.84;;;-2.68;55.91
20009;BME280;10165;42.662;23.260;2023-02-08T07:25:00;95881.09;;;-2.50;55.97
20009;BME280;10165;42.662;23.260;2023-02-08T07:27:27;95869.06;;;-2.21;55.32
20009;BME280;10165;42.662;23.260;2023-02-08T07:29:54;95873.81;;;-2.48;55.33
20009;BME280;10165;42.662;23.260;2023-02-08T07:32:20;95870.53;;;-2.43;55.33
20009;BME280;10165;42.662;23.260;2023-02-08T07:34:47;95877.75;;;-2.75;56.15
20009;BME280;10165;42.662;23.260;2023-02-08T07:37:14;95880.44;;;-1.97;54.64
20009;BME280;10165;42.662;23.260;2023-02-08T07:39:40;95874.34;;;-1.68;53.83
20009;BME280;10165;42.662;23.260;2023-02-08T07:42:08;95883.25;;;-1.69;53.46
20009;BME280;10165;42.662;23.260;2023-02-08T07:44:38;95888.97;;;-1.49;54.21
20009;BME280;10165;42.662;23.260;2023-02-08T07:47:05;95883.44;;;-2.12;54.02
20009;BME280;10165;42.662;23.260;2023-02-08T07:49:32;95889.78;;;-1.89;54.71
20009;BME280;10165;42.662;23.260;2023-02-08T07:52:00;95888.63;;;-1.52;53.45
20009;BME280;10165;42.662;23.260;2023-02-08T07:54:27;95889.22;;;-1.80;52.55
20009;BME280;10165;42.662;23.260;2023-02-08T07:56:55;95892.31;;;-2.13;53.91
20009;BME280;10165;42.662;23.260;2023-02-08T07:59:21;95888.28;;;-2.27;53.28
20009;BME280;10165;42.662;23.260;2023-02-08T08:01:48;95895.06;;;-2.26;53.69
20009;BME280;10165;42.662;23.260;2023-02-08T08:04:15;95885.25;;;-2.12;54.21
20009;BME280;10165;42.662;23.260;2023-02-08T08:06:42;95892.16;;;-2.00;53.05
20009;BME280;10165;42.662;23.260;2023-02-08T08:09:08;95895.50;;;-1.39;52.21
20009;BME280;10165;42.662;23.260;2023-02-08T08:11:35;95879.78;;;-1.39;52.51
20009;BME280;10165;42.662;23.260;2023-02-08T08:14:02;95887.03;;;-1.41;52.32
20009;BME280;10165;42.662;23.260;2023-02-08T08:16:28;95882.41;;;-1.28;51.88
20009;BME280;10165;42.662;23.260;2023-02-08T08:18:55;95869.53;;;-1.18;50.94
20009;BME280;10165;42.662;23.260;2023-02-08T08:21:22;95873.31;;;-1.02;50.92
20009;BME280;10165;42.662;23.260;2023-02-08T08:23:48;95872.81;;;-1.34;51.10
20009;BME280;10165;42.662;23.260;2023-02-08T08:26:18;95879.22;;;-1.18;51.17
20009;BME280;10165;42.662;23.260;2023-02-08T08:28:45;95875.91;;;-1.37;51.83
20009;BME280;10165;42.662;23.260;2023-02-08T08:31:15;95872.28;;;-0.89;50.45
20009;BME280;10165;42.662;23.260;2023-02-08T08:33:42;95882.59;;;-1.41;52.13
20009;BME280;10165;42.662;23.260;2023-02-08T08:36:09;95876.94;;;-1.03;51.05
20009;BME280;10165;42.662;23.260;2023-02-08T08:38:36;95875.13;;;-1.03;50.97
20009;BME280;10165;42.662;23.260;2023-02-08T08:41:13;95878.00;;;-1.04;50.94
20009;BME280;10165;42.662;23.260;2023-02-08T08:43:44;95885.78;;;-1.62;51.73
20009;BME280;10165;42.662;23.260;2023-02-08T08:46:11;95885.38;;;-0.78;50.83
20009;BME280;10165;42.662;23.260;2023-02-08T08:48:38;95880.25;;;-1.31;51.03
20009;BME280;10165;42.662;23.260;2023-02-08T08:51:05;95890.78;;;-1.61;52.05
20009;BME280;10165;42.662;23.260;2023-02-08T08:53:33;95891.91;;;-1.04;51.58
20009;BME280;10165;42.662;23.260;2023-02-08T08:56:00;95887.41;;;-1.26;51.57
20009;BME280;10165;42.662;23.260;2023-02-08T08:58:27;95900.75;;;-1.39;52.29
20009;BME280;10165;42.662;23.260;2023-02-08T09:00:59;95894.28;;;-1.14;52.50
20009;BME280;10165;42.662;23.260;2023-02-08T09:03:27;95897.75;;;-1.55;53.00
20009;BME280;10165;42.662;23.260;2023-02-08T09:05:54;95899.84;;;-1.22;52.61
20009;BME280;10165;42.662;23.260;2023-02-08T09:08:21;95891.03;;;-1.51;52.20
20009;BME280;10165;42.662;23.260;2023-02-08T09:10:47;95896.72;;;-1.54;53.07
20009;BME280;10165;42.662;23.260;2023-02-08T09:13:14;95893.34;;;-1.42;51.87
20009;BME280;10165;42.662;23.260;2023-02-08T09:15:45;95906.31;;;-1.48;52.39
20009;BME280;10165;42.662;23.260;2023-02-08T09:18:11;95908.25;;;-1.43;52.54
20009;BME280;10165;42.662;23.260;2023-02-08T09:20:39;95911.47;;;-1.71;52.57
20009;BME280;10165;42.662;23.260;2023-02-08T09:23:06;95905.88;;;-0.52;50.62
20009;BME280;10165;42.662;23.260;2023-02-08T09:25:33;95905.91;;;-1.10;50.51
20009;BME280;10165;42.662;23.260;2023-02-08T09:27:59;95909.09;;;-1.19;50.57
20009;BME280;10165;42.662;23.260;2023-02-08T09:30:26;95906.00;;;-1.28;50.93
20009;BME280;10165;42.662;23.260;2023-02-08T09:32:53;95914.56;;;-2.04;51.54
20009;BME280;10165;42.662;23.260;2023-02-08T09:35:19;95913.50;;;-1.43;50.89
20009;BME280;10165;42.662;23.260;2023-02-08T09:37:46;95907.94;;;-1.35;51.17
20009;BME280;10165;42.662;23.260;2023-02-08T09:40:23;95926.59;;;-2.03;52.03
20009;BME280;10165;42.662;23.260;2023-02-08T09:43:20;95913.66;;;-1.68;52.01
20009;BME280;10165;42.662;23.260;2023-02-08T09:45:50;95917.53;;;-1.70;51.95
20009;BME280;10165;42.662;23.260;2023-02-08T09:48:33;95915.88;;;-1.41;50.75
20009;BME280;10165;42.662;23.260;2023-02-08T09:53:55;95908.72;;;-1.46;51.29
20009;BME280;10165;42.662;23.260;2023-02-08T09:56:30;95908.38;;;-1.26;50.73
20009;BME280;10165;42.662;23.260;2023-02-08T09:58:59;95899.69;;;-0.34;48.93
20009;BME280;10165;42.662;23.260;2023-02-08T10:01:29;95906.44;;;-1.72;50.56
20009;BME280;10165;42.662;23.260;2023-02-08T10:04:03;95905.56;;;-0.78;51.00
20009;BME280;10165;42.662;23.260;2023-02-08T10:06:31;95889.31;;;-0.01;49.05
20009;BME280;10165;42.662;23.260;2023-02-08T10:09:02;95893.63;;;0.34;48.28
20009;BME280;10165;42.662;23.260;2023-02-08T10:31:10;95887.59;;;-0.23;48.26
20009;BME280;10165;42.662;23.260;2023-02-08T10:36:20;95890.09;;;0.28;46.85
20009;BME280;10165;42.662;23.260;2023-02-08T10:38:50;95880.00;;;-0.08;46.22
20009;BME280;10165;42.662;23.260;2023-02-08T10:41:22;95890.97;;;-0.86;47.94
20009;BME280;10165;42.662;23.260;2023-02-08T10:46:29;95880.50;;;-0.34;48.14
20009;BME280;10165;42.662;23.260;2023-02-08T10:49:24;95881.72;;;-0.14;47.61
20009;BME280;10165;42.662;23.260;2023-02-08T10:51:57;95883.78;;;-0.16;48.39
20009;BME280;10165;42.662;23.260;2023-02-08T10:54:23;95879.88;;;-0.65;49.63
20009;BME280;10165;42.662;23.260;2023-02-08T10:56:59;95896.34;;;-0.81;49.30
20009;BME280;10165;42.662;23.260;2023-02-08T10:59:48;95893.06;;;-0.36;49.97
20009;BME280;10165;42.662;23.260;2023-02-08T11:02:40;95892.13;;;0.10;49.24
20009;BME280;10165;42.662;23.260;2023-02-08T11:05:12;95897.63;;;1.20;46.25
20009;BME280;10165;42.662;23.260;2023-02-08T11:07:40;95885.69;;;1.12;45.83
20009;BME280;10165;42.662;23.260;2023-02-08T11:13:02;95888.16;;;0.85;43.75
20009;BME280;10165;42.662;23.260;2023-02-08T11:15:47;95882.06;;;1.95;43.23
20009;BME280;10165;42.662;23.260;2023-02-08T11:18:37;95896.63;;;1.42;43.38
20009;BME280;10165;42.662;23.260;2023-02-08T11:23:55;95893.31;;;0.47;47.23
20009;BME280;10165;42.662;23.260;2023-02-08T11:29:04;95900.63;;;0.28;47.77
20009;BME280;10165;42.662;23.260;2023-02-08T11:31:37;95897.34;;;0.50;48.29
20009;BME280;10165;42.662;23.260;2023-02-08T11:34:09;95902.09;;;-0.44;49.09
20009;BME280;10165;42.662;23.260;2023-02-08T11:36:43;95904.84;;;-0.39;49.67
20009;BME280;10165;42.662;23.260;2023-02-08T11:39:37;95897.03;;;0.18;48.89
20009;BME280;10165;42.662;23.260;2023-02-08T11:42:05;95901.44;;;-0.51;50.72
20009;BME280;10165;42.662;23.260;2023-02-08T11:44:35;95907.84;;;-0.59;51.34
20009;BME280;10165;42.662;23.260;2023-02-08T11:47:05;95908.06;;;-0.72;51.32
20009;BME280;10165;42.662;23.260;2023-02-08T11:49:38;95904.84;;;-0.39;49.78
20009;BME280;10165;42.662;23.260;2023-02-08T11:54:48;95908.28;;;-0.38;49.63
20009;BME280;10165;42.662;23.260;2023-02-08T11:59:42;95906.44;;;0.02;49.34
20009;BME280;10165;42.662;23.260;2023-02-08T12:02:35;95904.47;;;-0.19;49.84
20009;BME280;10165;42.662;23.260;2023-02-08T12:05:05;95916.25;;;-0.57;49.98
20009;BME280;10165;42.662;23.260;2023-02-08T12:07:45;95906.63;;;-0.16;50.01
20009;BME280;10165;42.662;23.260;2023-02-08T12:19:00;95907.00;;;0.32;48.36
20009;BME280;10165;42.662;23.260;2023-02-08T12:30:33;95901.06;;;-0.31;49.45
20009;BME280;10165;42.662;23.260;2023-02-08T12:44:50;95899.31;;;0.14;47.43
20009;BME280;10165;42.662;23.260;2023-02-08T12:47:45;95911.28;;;0.22;46.52
20009;BME280;10165;42.662;23.260;2023-02-08T12:53:23;95918.16;;;-0.29;47.40
20009;BME280;10165;42.662;23.260;2023-02-08T12:55:52;95908.66;;;-0.18;47.31
20009;BME280;10165;42.662;23.260;2023-02-08T12:58:43;95911.47;;;-0.60;47.57
20009;BME280;10165;42.662;23.260;2023-02-08T13:01:20;95920.16;;;-1.17;47.29
20009;BME280;10165;42.662;23.260;2023-02-08T13:03:59;95921.47;;;-0.22;45.90
20009;BME280;10165;42.662;23.260;2023-02-08T13:06:37;95933.50;;;-0.49;45.19
20009;BME280;10165;42.662;23.260;2023-02-08T13:11:58;95927.81;;;-0.06;45.89
20009;BME280;10165;42.662;23.260;2023-02-08T13:17:23;95932.13;;;-0.40;46.43
20009;BME280;10165;42.662;23.260;2023-02-08T13:19:56;95930.09;;;0.30;45.79
20009;BME280;10165;42.662;23.260;2023-02-08T13:22:30;95930.25;;;0.12;44.52
20009;BME280;10165;42.662;23.260;2023-02-08T13:24:57;95936.22;;;0.81;43.71
20009;BME280;10165;42.662;23.260;2023-02-08T13:27:33;95941.47;;;0.64;43.45
20009;BME280;10165;42.662;23.260;2023-02-08T13:30:00;95935.91;;;0.77;42.90
20009;BME280;10165;42.662;23.260;2023-02-08T13:32:29;95941.81;;;0.68;42.57
20009;BME280;10165;42.662;23.260;2023-02-08T13:35:02;95938.44;;;0.56;43.48
20009;BME280;10165;42.662;23.260;2023-02-08T13:37:33;95941.22;;;0.49;44.07
20009;BME280;10165;42.662;23.260;2023-02-08T13:40:07;95939.97;;;0.12;43.25
20009;BME280;10165;42.662;23.260;2023-02-08T13:42:47;95938.81;;;0.19;43.14
20009;BME280;10165;42.662;23.260;2023-02-08T13:45:32;95953.72;;;0.02;43.69
20009;BME280;10165;42.662;23.260;2023-02-08T13:48:08;95943.78;;;-0.08;43.51
20009;BME280;10165;42.662;23.260;2023-02-08T13:50:43;95947.88;;;-0.52;45.39
20009;BME280;10165;42.662;23.260;2023-02-08T13:53:11;95946.41;;;-0.71;45.01
20009;BME280;10165;42.662;23.260;2023-02-08T14:01:07;95942.63;;;-0.52;46.03
20009;BME280;10165;42.662;23.260;2023-02-08T14:03:39;95947.66;;;-0.62;45.64
20009;BME280;10165;42.662;23.260;2023-02-08T14:11:47;95956.06;;;-1.06;47.41
20009;BME280;10165;42.662;23.260;2023-02-08T14:17:08;95957.44;;;-0.92;46.99
20009;BME280;10165;42.662;23.260;2023-02-08T14:19:39;95953.13;;;-0.75;47.27
20009;BME280;10165;42.662;23.260;2023-02-08T14:24:38;95964.28;;;-1.03;47.66
20009;BME280;10165;42.662;23.260;2023-02-08T14:27:19;95963.03;;;-1.12;48.24
20009;BME280;10165;42.662;23.260;2023-02-08T14:30:30;95972.47;;;-1.52;49.13
20009;BME280;10165;42.662;23.260;2023-02-08T14:35:32;95965.44;;;-0.52;47.77
20009;BME280;10165;42.662;23.260;2023-02-08T14:40:50;95972.81;;;-0.96;49.29
20009;BME280;10165;42.662;23.260;2023-02-08T14:45:48;95960.97;;;-0.17;47.46
20009;BME280;10165;42.662;23.260;2023-02-08T14:56:34;95971.38;;;-0.57;47.99
20009;BME280;10165;42.662;23.260;2023-02-08T14:59:11;95983.59;;;-0.85;48.49
20009;BME280;10165;42.662;23.260;2023-02-08T15:01:56;95975.47;;;-0.37;48.32
20009;BME280;10165;42.662;23.260;2023-02-08T15:04:25;95989.97;;;-1.34;49.93
20009;BME280;10165;42.662;23.260;2023-02-08T15:09:35;95989.88;;;-1.28;51.41
20009;BME280;10165;42.662;23.260;2023-02-08T15:12:25;95984.22;;;-1.02;50.68
20009;BME280;10165;42.662;23.260;2023-02-08T15:14:54;95986.94;;;-1.20;50.96
20009;BME280;10165;42.662;23.260;2023-02-08T15:17:43;95986.91;;;-0.55;49.18
20009;BME280;10165;42.662;23.260;2023-02-08T15:20:27;95989.91;;;-1.16;49.42
20009;BME280;10165;42.662;23.260;2023-02-08T15:25:35;95996.78;;;-0.80;49.53
20009;BME280;10165;42.662;23.260;2023-02-08T15:28:16;95992.16;;;-0.43;48.61
20009;BME280;10165;42.662;23.260;2023-02-08T15:30:44;95993.81;;;-0.96;49.08
20009;BME280;10165;42.662;23.260;2023-02-08T15:33:15;95991.94;;;-1.18;49.75
20009;BME280;10165;42.662;23.260;2023-02-08T15:35:44;95996.28;;;-1.54;50.51
20009;BME280;10165;42.662;23.260;2023-02-08T15:38:17;95996.91;;;-1.40;49.70